Terminal Aerodrome Forecast
Issued by NWS Wilmington, NC

Home | Current Version | Previous Version | Text Only | Print | Product List | Glossary On
Versions: 1 2 3 4 5 6 7 8 9 10 11 12 13 14 15 16 17
000
FTUS42 KILM 201000 AAB
TAFILM
TAF AMD
KILM 201004Z 2010/2106 00000KT 6SM BR SCT060 BKN150
      TEMPO 2010/2012 4SM BR SCT012
     FM201300 33004KT P6SM SCT050 BKN250
     FM201800 13008KT P6SM VCTS SCT025CB BKN050
      TEMPO 2018/2022 3SM TSRA BR BKN025CB OVC045
     FM210000 VRB02KT P6SM FEW250=

USA.gov is the U.S. government's official web portal to all federal, state and local government web resources and services.